createdAt,value
2022-10-14T00:00:12.409Z,11.15
2022-10-14T00:05:13.923Z,11.12
2022-10-14T00:10:15.428Z,11.03
2022-10-14T00:15:17.338Z,10.93
2022-10-14T00:20:18.763Z,10.92
2022-10-14T00:25:20.187Z,11.01
2022-10-14T00:30:21.604Z,11.01
2022-10-14T00:35:23.731Z,10.99
2022-10-14T00:40:26.560Z,10.83
2022-10-14T00:45:28.146Z,10.77
2022-10-14T00:50:29.576Z,10.73
2022-10-14T00:55:31.293Z,10.74
2022-10-14T01:00:33.258Z,10.74
2022-10-14T01:05:44.091Z,10.75
2022-10-14T01:10:54.799Z,10.71
2022-10-14T01:16:05.195Z,10.52
2022-10-14T01:21:27.523Z,10.57
2022-10-14T01:26:58.708Z,10.54
2022-10-14T01:32:09.790Z,10.57
2022-10-14T01:37:19.197Z,10.48
2022-10-14T01:42:25.945Z,10.46
2022-10-14T01:47:33.012Z,10.33
2022-10-14T01:52:40.602Z,10.12
2022-10-14T01:57:44.192Z,10.14
2022-10-14T02:02:45.686Z,10.08
2022-10-14T02:07:53.741Z,10.01
2022-10-14T02:13:28.912Z,9.98
2022-10-14T02:18:40.707Z,10.02
2022-10-14T02:23:47.899Z,10.01
2022-10-14T02:28:50.840Z,10.17
2022-10-14T02:33:56.149Z,10.14
2022-10-14T02:39:00.590Z,10.19
2022-10-14T02:44:02.293Z,10.21
2022-10-14T02:49:04.047Z,10.24
2022-10-14T02:54:05.733Z,10.29
2022-10-14T02:59:07.392Z,10.32
2022-10-14T03:04:08.848Z,10.33
2022-10-14T03:09:10.243Z,10.33
2022-10-14T03:14:12.270Z,10.34
2022-10-14T03:19:13.896Z,10.35
2022-10-14T03:24:15.314Z,10.36
2022-10-14T03:29:17.131Z,10.38
2022-10-14T03:34:18.732Z,10.30
2022-10-14T03:39:20.536Z,10.21
2022-10-14T03:44:22.028Z,10.06
2022-10-14T03:49:23.740Z,9.98
2022-10-14T03:54:25.165Z,10.09
2022-10-14T03:59:26.590Z,10.08
2022-10-14T04:04:28.004Z,9.90
2022-10-14T04:09:29.479Z,9.88
2022-10-14T04:14:30.965Z,10.01
2022-10-14T04:19:32.625Z,9.87
2022-10-14T04:24:34.049Z,9.87
2022-10-14T04:29:35.468Z,9.89
2022-10-14T04:34:36.979Z,9.89
2022-10-14T04:39:38.551Z,9.82
2022-10-14T04:44:40.739Z,9.84
2022-10-14T04:49:42.203Z,9.91
2022-10-14T04:54:43.783Z,9.98
2022-10-14T04:59:45.187Z,10.04
2022-10-14T05:04:46.586Z,10.10
2022-10-14T05:09:50.470Z,10.17
2022-10-14T05:14:55.096Z,10.16
2022-10-14T05:19:56.533Z,10.14
2022-10-14T05:24:57.982Z,10.14
2022-10-14T05:29:59.425Z,10.12
2022-10-14T05:35:00.857Z,10.15
2022-10-14T05:40:02.335Z,10.16
2022-10-14T05:45:04.909Z,10.23
2022-10-14T05:50:06.775Z,10.27
2022-10-14T05:55:08.914Z,10.30
2022-10-14T06:00:10.932Z,10.42
2022-10-14T06:05:12.359Z,10.52
2022-10-14T06:10:13.799Z,10.53
2022-10-14T06:15:15.321Z,10.54
2022-10-14T06:20:16.799Z,10.55
2022-10-14T06:25:18.205Z,10.57
2022-10-14T06:30:19.819Z,10.65
2022-10-14T06:35:21.207Z,10.67
2022-10-14T06:40:22.650Z,10.78
2022-10-14T06:45:24.213Z,10.85
2022-10-14T06:50:25.797Z,10.95
2022-10-14T06:55:27.217Z,10.97
2022-10-14T07:00:28.654Z,10.90
2022-10-14T07:05:30.336Z,10.90
2022-10-14T07:10:31.752Z,10.97
2022-10-14T07:15:35.430Z,11.05
2022-10-14T07:20:37.904Z,11.04
2022-10-14T07:25:39.443Z,11.23
2022-10-14T07:30:40.894Z,11.39
2022-10-14T07:35:42.297Z,11.53
2022-10-14T07:40:43.698Z,11.81
2022-10-14T07:45:47.808Z,12.28
2022-10-14T07:50:50.189Z,12.74
2022-10-14T07:55:52.629Z,13.17
2022-10-14T08:00:55.042Z,13.32
2022-10-14T08:06:01.332Z,13.61
2022-10-14T08:11:04.577Z,13.72
2022-10-14T08:16:30.091Z,13.82
2022-10-14T08:21:31.551Z,14.04
2022-10-14T08:26:38.221Z,14.12
2022-10-14T08:31:39.685Z,14.37
2022-10-14T08:36:41.484Z,14.60
2022-10-14T08:42:20.784Z,14.87
2022-10-14T08:47:27.349Z,14.86
2022-10-14T08:52:41.615Z,14.92
2022-10-14T08:57:50.702Z,14.92
2022-10-14T09:02:52.313Z,15.02
2022-10-14T09:07:56.390Z,15.12
2022-10-14T09:13:07.381Z,15.32
2022-10-14T09:18:26.858Z,15.53
2022-10-14T09:23:28.474Z,15.77
2022-10-14T09:28:38.814Z,16.05
2022-10-14T09:33:42.778Z,16.41
2022-10-14T09:38:47.987Z,16.58
2022-10-14T09:44:25.834Z,16.69
2022-10-14T09:49:46.549Z,16.88
2022-10-14T09:54:57.164Z,17.03
2022-10-14T10:00:01.127Z,17.14
2022-10-14T10:05:28.507Z,17.25
2022-10-14T10:10:31.049Z,17.27
2022-10-14T10:15:32.502Z,17.41
2022-10-14T10:20:34.192Z,17.47
2022-10-14T10:25:35.636Z,17.58
2022-10-14T10:30:46.366Z,17.37
2022-10-14T10:36:00.655Z,17.19
2022-10-14T10:41:19.957Z,17.19
2022-10-14T10:46:36.637Z,17.43
2022-10-14T10:51:53.552Z,17.55
2022-10-14T10:56:59.163Z,17.61
2022-10-14T11:02:12.403Z,17.79
2022-10-14T11:08:09.117Z,17.91
2022-10-14T11:13:46.725Z,17.94
2022-10-14T11:19:03.198Z,18.09
2022-10-14T11:24:13.551Z,17.88
2022-10-14T11:29:50.265Z,17.84
2022-10-14T11:35:25.282Z,17.76
2022-10-14T11:40:31.961Z,17.64
2022-10-14T11:45:58.001Z,17.64
2022-10-14T11:51:11.039Z,17.78
2022-10-14T11:56:29.530Z,17.83
2022-10-14T12:01:37.252Z,17.97
2022-10-14T12:07:10.088Z,17.93
2022-10-14T12:12:15.011Z,17.82
2022-10-14T12:17:25.642Z,17.72
2022-10-14T12:22:30.355Z,17.78
2022-10-14T12:27:32.348Z,17.83
2022-10-14T12:32:33.864Z,17.79
2022-10-14T12:37:35.921Z,17.84
2022-10-14T12:42:59.001Z,17.88
2022-10-14T12:48:25.296Z,17.92
2022-10-14T12:53:30.587Z,17.96
2022-10-14T12:58:36.380Z,17.97
2022-10-14T13:03:43.942Z,18.10
2022-10-14T13:09:11.186Z,18.36
2022-10-14T13:14:31.207Z,18.50
2022-10-14T13:19:32.556Z,18.38
2022-10-14T13:24:39.750Z,18.38
2022-10-14T13:30:12.071Z,18.34
2022-10-14T13:35:26.347Z,18.26
2022-10-14T13:40:36.952Z,18.16
2022-10-14T13:45:43.363Z,18.12
2022-10-14T13:50:48.449Z,18.01
2022-10-14T13:55:54.581Z,17.85
2022-10-14T14:00:57.933Z,17.84
2022-10-14T14:05:59.992Z,17.78
2022-10-14T14:11:16.330Z,17.70
2022-10-14T14:16:25.366Z,17.66
2022-10-14T14:21:27.898Z,17.55
2022-10-14T14:26:34.806Z,17.69
2022-10-14T14:32:01.885Z,17.74
2022-10-14T14:37:17.257Z,17.57
2022-10-14T14:42:25.801Z,17.54
2022-10-14T14:47:29.008Z,17.57
2022-10-14T14:52:30.779Z,17.52
2022-10-14T14:57:32.222Z,17.44
2022-10-14T15:02:34.981Z,17.23
2022-10-14T15:07:37.036Z,17.07
2022-10-14T15:12:41.975Z,16.94
2022-10-14T15:17:47.585Z,16.84
2022-10-14T15:22:49.151Z,16.83
2022-10-14T15:27:50.566Z,16.77
2022-10-14T15:32:53.219Z,16.76
2022-10-14T15:37:55.082Z,16.65
2022-10-14T15:42:56.669Z,16.50
2022-10-14T15:48:02.720Z,16.40
2022-10-14T15:53:04.149Z,16.24
2022-10-14T15:58:05.937Z,16.09
2022-10-14T16:03:10.430Z,15.91
2022-10-14T16:08:15.325Z,15.81
2022-10-14T16:13:16.749Z,15.74
2022-10-14T16:18:18.424Z,15.62
2022-10-14T16:23:22.482Z,15.54
2022-10-14T16:28:23.910Z,15.48
2022-10-14T16:33:25.601Z,15.39
2022-10-14T16:38:28.200Z,15.18
2022-10-14T16:43:30.009Z,15.03
2022-10-14T16:48:33.813Z,15.00
2022-10-14T16:53:41.222Z,15.04
2022-10-14T16:58:42.648Z,15.01
2022-10-14T17:03:44.059Z,14.89
2022-10-14T17:08:45.528Z,14.88
2022-10-14T17:13:47.257Z,14.90
2022-10-14T17:24:01.378Z,14.79
2022-10-14T17:29:03.610Z,14.80
2022-10-14T17:34:05.344Z,14.74
2022-10-14T17:39:07.774Z,14.78
2022-10-14T17:44:09.233Z,14.74
2022-10-14T17:49:11.992Z,14.69
2022-10-14T17:54:13.433Z,14.62
2022-10-14T17:59:14.835Z,14.49
2022-10-14T18:04:16.370Z,14.44
2022-10-14T18:09:17.788Z,14.42
2022-10-14T18:14:19.188Z,14.21
2022-10-14T18:19:20.584Z,14.16
2022-10-14T18:24:22.622Z,14.13
2022-10-14T18:29:24.645Z,14.05
2022-10-14T18:34:27.369Z,13.91
2022-10-14T18:39:28.815Z,13.84
2022-10-14T18:44:30.311Z,13.75
2022-10-14T18:49:34.531Z,13.71
2022-10-14T18:54:39.611Z,13.68
2022-10-14T18:59:41.055Z,13.66
2022-10-14T19:04:42.514Z,13.58
2022-10-14T19:09:44.659Z,13.52
2022-10-14T19:14:46.769Z,13.39
2022-10-14T19:19:48.218Z,13.32
2022-10-14T19:24:49.643Z,13.10
2022-10-14T19:29:51.052Z,13.14
2022-10-14T19:34:52.501Z,13.19
2022-10-14T19:39:54.101Z,13.13
2022-10-14T19:44:55.538Z,13.22
2022-10-14T19:49:56.969Z,13.07
2022-10-14T19:54:58.423Z,13.05
2022-10-14T19:59:59.887Z,12.96
2022-10-14T20:05:01.381Z,13.02
2022-10-14T20:10:03.274Z,13.05
2022-10-14T20:15:06.708Z,13.01
2022-10-14T20:20:08.772Z,12.97
2022-10-14T20:25:10.303Z,12.96
2022-10-14T20:30:12.578Z,12.98
2022-10-14T20:35:15.114Z,12.89
2022-10-14T20:40:16.918Z,12.98
2022-10-14T20:45:18.698Z,12.81
2022-10-14T20:50:20.476Z,12.81
2022-10-14T20:55:21.872Z,12.84
2022-10-14T21:00:23.322Z,12.93
2022-10-14T21:05:25.278Z,12.95
2022-10-14T21:10:27.327Z,13.02
2022-10-14T21:15:28.764Z,12.87
2022-10-14T21:20:30.544Z,12.96
2022-10-14T21:25:31.966Z,12.91
2022-10-14T21:30:33.628Z,12.88
2022-10-14T21:35:35.204Z,12.91
2022-10-14T21:40:36.814Z,12.84
2022-10-14T21:45:38.282Z,12.86
2022-10-14T21:50:39.675Z,12.80
2022-10-14T21:55:41.109Z,12.81
2022-10-14T22:00:42.559Z,12.76
2022-10-14T22:05:44.387Z,12.76
2022-10-14T22:10:45.867Z,12.61
2022-10-14T22:15:47.343Z,12.64
2022-10-14T22:20:49.972Z,12.60
2022-10-14T22:25:51.389Z,12.63
2022-10-14T22:30:52.796Z,12.62
2022-10-14T22:35:54.193Z,12.58
2022-10-14T22:40:55.637Z,12.67
2022-10-14T22:46:08.757Z,12.63
2022-10-14T22:51:12.540Z,12.69
2022-10-14T22:56:16.922Z,12.73
2022-10-14T23:01:18.432Z,12.73
2022-10-14T23:06:20.221Z,12.69
2022-10-14T23:11:24.025Z,12.81
2022-10-14T23:16:27.275Z,12.95
2022-10-14T23:21:31.242Z,13.02
2022-10-14T23:26:34.969Z,13.06
2022-10-14T23:31:38.534Z,13.00
2022-10-14T23:36:40.373Z,13.07
2022-10-14T23:41:41.881Z,13.14
2022-10-14T23:46:43.360Z,13.13
2022-10-14T23:51:44.852Z,13.09
2022-10-14T23:56:46.282Z,13.05
